sensor_id;sensor_type;location;lat;lon;timestamp;P1;durP1;ratioP1;P2;durP2;ratioP2
23732;SDS011;12047;53.450;-2.286;2023-06-19T00:02:13;45.88;;;38.90;;
23732;SDS011;12047;53.450;-2.286;2023-06-19T00:07:14;47.88;;;39.42;;
23732;SDS011;12047;53.450;-2.286;2023-06-19T00:12:14;48.08;;;38.97;;
23732;SDS011;12047;53.450;-2.286;2023-06-19T00:17:15;46.88;;;39.42;;
23732;SDS011;12047;53.450;-2.286;2023-06-19T00:22:18;44.65;;;37.97;;
23732;SDS011;12047;53.450;-2.286;2023-06-19T00:27:19;47.03;;;40.05;;
23732;SDS011;12047;53.450;-2.286;2023-06-19T00:32:20;48.70;;;40.05;;
23732;SDS011;12047;53.450;-2.286;2023-06-19T00:37:20;49.75;;;41.60;;
23732;SDS011;12047;53.450;-2.286;2023-06-19T00:42:21;49.83;;;40.03;;
23732;SDS011;12047;53.450;-2.286;2023-06-19T00:47:21;54.53;;;43.53;;
23732;SDS011;12047;53.450;-2.286;2023-06-19T00:52:22;43.03;;;37.85;;
23732;SDS011;12047;53.450;-2.286;2023-06-19T00:57:23;45.83;;;39.58;;
23732;SDS011;12047;53.450;-2.286;2023-06-19T01:02:25;39.15;;;34.83;;
23732;SDS011;12047;53.450;-2.286;2023-06-19T01:13:02;38.47;;;33.95;;
23732;SDS011;12047;53.450;-2.286;2023-06-19T01:18:12;38.05;;;31.52;;
23732;SDS011;12047;53.450;-2.286;2023-06-19T01:23:12;35.40;;;30.30;;
23732;SDS011;12047;53.450;-2.286;2023-06-19T01:28:13;36.72;;;32.75;;
23732;SDS011;12047;53.450;-2.286;2023-06-19T01:33:15;34.13;;;30.40;;
23732;SDS011;12047;53.450;-2.286;2023-06-19T01:38:20;34.92;;;30.13;;
23732;SDS011;12047;53.450;-2.286;2023-06-19T01:43:25;32.40;;;28.80;;
23732;SDS011;12047;53.450;-2.286;2023-06-19T01:48:27;33.40;;;27.55;;
23732;SDS011;12047;53.450;-2.286;2023-06-19T01:53:32;30.15;;;26.75;;
23732;SDS011;12047;53.450;-2.286;2023-06-19T01:58:32;36.97;;;28.88;;
23732;SDS011;12047;53.450;-2.286;2023-06-19T02:03:33;33.70;;;28.10;;
23732;SDS011;12047;53.450;-2.286;2023-06-19T02:08:33;30.33;;;25.73;;
23732;SDS011;12047;53.450;-2.286;2023-06-19T02:13:34;31.05;;;26.20;;
23732;SDS011;12047;53.450;-2.286;2023-06-19T02:18:34;30.83;;;25.58;;
23732;SDS011;12047;53.450;-2.286;2023-06-19T02:23:35;31.73;;;26.83;;
23732;SDS011;12047;53.450;-2.286;2023-06-19T02:28:35;36.10;;;27.80;;
23732;SDS011;12047;53.450;-2.286;2023-06-19T02:33:36;32.53;;;25.67;;
23732;SDS011;12047;53.450;-2.286;2023-06-19T02:38:37;30.58;;;26.98;;
23732;SDS011;12047;53.450;-2.286;2023-06-19T02:43:37;33.13;;;27.00;;
23732;SDS011;12047;53.450;-2.286;2023-06-19T02:48:38;28.95;;;25.85;;
23732;SDS011;12047;53.450;-2.286;2023-06-19T02:53:38;34.08;;;27.88;;
23732;SDS011;12047;53.450;-2.286;2023-06-19T02:58:39;28.48;;;24.52;;
23732;SDS011;12047;53.450;-2.286;2023-06-19T03:03:39;27.63;;;24.58;;
23732;SDS011;12047;53.450;-2.286;2023-06-19T03:08:40;28.17;;;23.52;;
23732;SDS011;12047;53.450;-2.286;2023-06-19T03:13:46;28.88;;;23.35;;
23732;SDS011;12047;53.450;-2.286;2023-06-19T03:18:53;27.80;;;23.17;;
23732;SDS011;12047;53.450;-2.286;2023-06-19T03:23:54;25.55;;;22.73;;
23732;SDS011;12047;53.450;-2.286;2023-06-19T03:28:54;24.98;;;21.40;;
23732;SDS011;12047;53.450;-2.286;2023-06-19T03:33:55;22.90;;;20.27;;
23732;SDS011;12047;53.450;-2.286;2023-06-19T03:38:55;25.95;;;21.30;;
23732;SDS011;12047;53.450;-2.286;2023-06-19T03:43:56;24.65;;;20.67;;
23732;SDS011;12047;53.450;-2.286;2023-06-19T03:48:56;24.25;;;20.98;;
23732;SDS011;12047;53.450;-2.286;2023-06-19T03:53:57;27.83;;;22.98;;
23732;SDS011;12047;53.450;-2.286;2023-06-19T03:58:57;26.90;;;23.25;;
23732;SDS011;12047;53.450;-2.286;2023-06-19T04:03:58;26.17;;;21.92;;
23732;SDS011;12047;53.450;-2.286;2023-06-19T04:08:59;30.05;;;24.55;;
23732;SDS011;12047;53.450;-2.286;2023-06-19T04:13:59;27.67;;;24.05;;
23732;SDS011;12047;53.450;-2.286;2023-06-19T04:19:00;30.65;;;26.42;;
23732;SDS011;12047;53.450;-2.286;2023-06-19T04:24:00;30.35;;;25.20;;
23732;SDS011;12047;53.450;-2.286;2023-06-19T04:29:01;30.58;;;26.25;;
23732;SDS011;12047;53.450;-2.286;2023-06-19T04:34:01;30.88;;;26.02;;
23732;SDS011;12047;53.450;-2.286;2023-06-19T04:39:05;29.67;;;25.77;;
23732;SDS011;12047;53.450;-2.286;2023-06-19T04:44:06;29.35;;;25.58;;
23732;SDS011;12047;53.450;-2.286;2023-06-19T04:49:07;32.40;;;27.27;;
23732;SDS011;12047;53.450;-2.286;2023-06-19T04:54:09;31.25;;;25.45;;
23732;SDS011;12047;53.450;-2.286;2023-06-19T04:59:09;30.92;;;24.80;;
23732;SDS011;12047;53.450;-2.286;2023-06-19T05:04:10;30.40;;;25.30;;
23732;SDS011;12047;53.450;-2.286;2023-06-19T05:09:13;28.38;;;24.02;;
23732;SDS011;12047;53.450;-2.286;2023-06-19T05:14:14;28.05;;;23.90;;
23732;SDS011;12047;53.450;-2.286;2023-06-19T05:19:14;28.85;;;23.75;;
23732;SDS011;12047;53.450;-2.286;2023-06-19T05:24:15;27.58;;;22.25;;
23732;SDS011;12047;53.450;-2.286;2023-06-19T05:29:15;25.83;;;20.30;;
23732;SDS011;12047;53.450;-2.286;2023-06-19T05:34:16;23.88;;;19.55;;
23732;SDS011;12047;53.450;-2.286;2023-06-19T05:39:17;25.88;;;19.63;;
23732;SDS011;12047;53.450;-2.286;2023-06-19T05:44:19;24.55;;;18.67;;
23732;SDS011;12047;53.450;-2.286;2023-06-19T05:49:19;22.25;;;18.05;;
23732;SDS011;12047;53.450;-2.286;2023-06-19T05:54:20;22.45;;;17.70;;
23732;SDS011;12047;53.450;-2.286;2023-06-19T05:59:20;19.50;;;16.38;;
23732;SDS011;12047;53.450;-2.286;2023-06-19T06:04:21;21.60;;;16.80;;
23732;SDS011;12047;53.450;-2.286;2023-06-19T06:09:22;21.98;;;15.73;;
23732;SDS011;12047;53.450;-2.286;2023-06-19T06:14:23;17.20;;;13.75;;
23732;SDS011;12047;53.450;-2.286;2023-06-19T06:19:23;16.90;;;13.80;;
23732;SDS011;12047;53.450;-2.286;2023-06-19T06:24:24;14.75;;;13.15;;
23732;SDS011;12047;53.450;-2.286;2023-06-19T06:29:25;17.60;;;11.57;;
23732;SDS011;12047;53.450;-2.286;2023-06-19T06:34:25;16.02;;;11.02;;
23732;SDS011;12047;53.450;-2.286;2023-06-19T06:39:26;12.65;;;10.63;;
23732;SDS011;12047;53.450;-2.286;2023-06-19T06:44:27;16.67;;;11.68;;
23732;SDS011;12047;53.450;-2.286;2023-06-19T06:49:27;13.40;;;11.98;;
23732;SDS011;12047;53.450;-2.286;2023-06-19T06:54:27;18.05;;;12.40;;
23732;SDS011;12047;53.450;-2.286;2023-06-19T06:59:28;16.13;;;12.27;;
23732;SDS011;12047;53.450;-2.286;2023-06-19T07:04:28;20.73;;;13.52;;
23732;SDS011;12047;53.450;-2.286;2023-06-19T07:09:29;20.38;;;13.00;;
23732;SDS011;12047;53.450;-2.286;2023-06-19T07:14:29;22.80;;;13.00;;
23732;SDS011;12047;53.450;-2.286;2023-06-19T07:19:30;17.55;;;12.57;;
23732;SDS011;12047;53.450;-2.286;2023-06-19T07:24:31;20.90;;;13.02;;
23732;SDS011;12047;53.450;-2.286;2023-06-19T07:29:31;17.70;;;12.20;;
23732;SDS011;12047;53.450;-2.286;2023-06-19T07:34:32;24.20;;;12.75;;
23732;SDS011;12047;53.450;-2.286;2023-06-19T07:39:32;18.63;;;11.23;;
23732;SDS011;12047;53.450;-2.286;2023-06-19T07:44:33;19.87;;;11.33;;
23732;SDS011;12047;53.450;-2.286;2023-06-19T07:49:34;17.00;;;10.82;;
23732;SDS011;12047;53.450;-2.286;2023-06-19T07:54:35;15.68;;;11.02;;
23732;SDS011;12047;53.450;-2.286;2023-06-19T07:59:35;18.38;;;10.98;;
23732;SDS011;12047;53.450;-2.286;2023-06-19T08:04:35;16.60;;;9.70;;
23732;SDS011;12047;53.450;-2.286;2023-06-19T08:09:36;16.08;;;10.48;;
23732;SDS011;12047;53.450;-2.286;2023-06-19T08:14:36;17.92;;;10.52;;
23732;SDS011;12047;53.450;-2.286;2023-06-19T08:19:38;14.75;;;9.60;;
23732;SDS011;12047;53.450;-2.286;2023-06-19T08:24:39;12.38;;;8.20;;
23732;SDS011;12047;53.450;-2.286;2023-06-19T08:29:40;13.45;;;8.98;;
23732;SDS011;12047;53.450;-2.286;2023-06-19T08:34:41;15.17;;;8.10;;
23732;SDS011;12047;53.450;-2.286;2023-06-19T08:39:42;11.60;;;7.35;;
23732;SDS011;12047;53.450;-2.286;2023-06-19T08:44:42;12.80;;;6.95;;
23732;SDS011;12047;53.450;-2.286;2023-06-19T08:49:43;11.68;;;6.60;;
23732;SDS011;12047;53.450;-2.286;2023-06-19T08:54:43;17.20;;;6.50;;
23732;SDS011;12047;53.450;-2.286;2023-06-19T08:59:47;11.02;;;6.32;;
23732;SDS011;12047;53.450;-2.286;2023-06-19T09:04:49;9.20;;;5.68;;
23732;SDS011;12047;53.450;-2.286;2023-06-19T09:09:49;10.55;;;5.63;;
23732;SDS011;12047;53.450;-2.286;2023-06-19T09:14:50;8.30;;;5.07;;
23732;SDS011;12047;53.450;-2.286;2023-06-19T09:19:51;10.02;;;4.88;;
23732;SDS011;12047;53.450;-2.286;2023-06-19T09:24:53;10.10;;;5.55;;
23732;SDS011;12047;53.450;-2.286;2023-06-19T09:29:53;7.38;;;4.15;;
23732;SDS011;12047;53.450;-2.286;2023-06-19T09:34:56;10.27;;;4.78;;
23732;SDS011;12047;53.450;-2.286;2023-06-19T09:40:01;11.70;;;4.68;;
23732;SDS011;12047;53.450;-2.286;2023-06-19T09:45:21;9.27;;;4.53;;
23732;SDS011;12047;53.450;-2.286;2023-06-19T09:50:24;6.95;;;4.18;;
23732;SDS011;12047;53.450;-2.286;2023-06-19T09:55:27;11.88;;;5.32;;
23732;SDS011;12047;53.450;-2.286;2023-06-19T10:00:30;7.80;;;4.22;;
23732;SDS011;12047;53.450;-2.286;2023-06-19T10:05:32;6.63;;;4.20;;
23732;SDS011;12047;53.450;-2.286;2023-06-19T10:10:32;9.88;;;5.30;;
23732;SDS011;12047;53.450;-2.286;2023-06-19T10:15:34;7.93;;;3.90;;
23732;SDS011;12047;53.450;-2.286;2023-06-19T10:20:41;7.13;;;3.95;;
23732;SDS011;12047;53.450;-2.286;2023-06-19T10:25:42;7.22;;;4.03;;
23732;SDS011;12047;53.450;-2.286;2023-06-19T10:30:44;10.63;;;4.88;;
23732;SDS011;12047;53.450;-2.286;2023-06-19T10:35:45;7.60;;;3.92;;
23732;SDS011;12047;53.450;-2.286;2023-06-19T10:40:46;7.53;;;4.20;;
23732;SDS011;12047;53.450;-2.286;2023-06-19T10:45:47;9.75;;;4.20;;
23732;SDS011;12047;53.450;-2.286;2023-06-19T10:50:48;11.93;;;7.45;;
23732;SDS011;12047;53.450;-2.286;2023-06-19T10:55:53;8.45;;;4.10;;
23732;SDS011;12047;53.450;-2.286;2023-06-19T11:00:55;7.20;;;3.55;;
23732;SDS011;12047;53.450;-2.286;2023-06-19T11:05:56;6.22;;;3.10;;
23732;SDS011;12047;53.450;-2.286;2023-06-19T11:10:57;8.00;;;3.60;;
23732;SDS011;12047;53.450;-2.286;2023-06-19T11:15:58;7.30;;;3.35;;
23732;SDS011;12047;53.450;-2.286;2023-06-19T11:20:58;6.60;;;3.30;;
23732;SDS011;12047;53.450;-2.286;2023-06-19T11:26:03;7.25;;;3.15;;
23732;SDS011;12047;53.450;-2.286;2023-06-19T11:31:05;6.30;;;3.40;;
23732;SDS011;12047;53.450;-2.286;2023-06-19T11:36:05;5.90;;;3.40;;
23732;SDS011;12047;53.450;-2.286;2023-06-19T11:41:07;5.50;;;3.00;;
23732;SDS011;12047;53.450;-2.286;2023-06-19T11:46:07;5.47;;;3.10;;
23732;SDS011;12047;53.450;-2.286;2023-06-19T11:51:08;10.75;;;3.60;;
23732;SDS011;12047;53.450;-2.286;2023-06-19T11:56:09;10.68;;;3.35;;
23732;SDS011;12047;53.450;-2.286;2023-06-19T12:01:09;5.68;;;3.10;;
23732;SDS011;12047;53.450;-2.286;2023-06-19T12:06:10;6.63;;;2.93;;
23732;SDS011;12047;53.450;-2.286;2023-06-19T12:11:10;5.57;;;2.70;;
23732;SDS011;12047;53.450;-2.286;2023-06-19T12:16:13;6.35;;;3.00;;
23732;SDS011;12047;53.450;-2.286;2023-06-19T12:21:14;6.90;;;3.30;;
23732;SDS011;12047;53.450;-2.286;2023-06-19T12:26:14;9.30;;;3.33;;
23732;SDS011;12047;53.450;-2.286;2023-06-19T12:31:15;10.05;;;3.75;;
23732;SDS011;12047;53.450;-2.286;2023-06-19T12:36:15;9.23;;;4.00;;
23732;SDS011;12047;53.450;-2.286;2023-06-19T12:41:16;6.35;;;3.47;;
23732;SDS011;12047;53.450;-2.286;2023-06-19T12:46:16;8.18;;;4.10;;
23732;SDS011;12047;53.450;-2.286;2023-06-19T12:51:17;6.95;;;3.75;;
23732;SDS011;12047;53.450;-2.286;2023-06-19T12:56:18;6.20;;;3.35;;
23732;SDS011;12047;53.450;-2.286;2023-06-19T13:01:18;5.60;;;3.30;;
23732;SDS011;12047;53.450;-2.286;2023-06-19T13:06:19;11.07;;;3.27;;
23732;SDS011;12047;53.450;-2.286;2023-06-19T13:11:19;7.82;;;3.30;;
23732;SDS011;12047;53.450;-2.286;2023-06-19T13:16:20;7.43;;;3.28;;
23732;SDS011;12047;53.450;-2.286;2023-06-19T13:21:20;8.38;;;2.30;;
23732;SDS011;12047;53.450;-2.286;2023-06-19T13:26:21;3.37;;;1.80;;
23732;SDS011;12047;53.450;-2.286;2023-06-19T13:31:21;3.70;;;1.70;;
23732;SDS011;12047;53.450;-2.286;2023-06-19T13:36:22;4.17;;;1.97;;
23732;SDS011;12047;53.450;-2.286;2023-06-19T13:41:23;3.35;;;1.60;;
23732;SDS011;12047;53.450;-2.286;2023-06-19T13:46:24;4.22;;;1.63;;
23732;SDS011;12047;53.450;-2.286;2023-06-19T13:51:25;4.10;;;1.55;;
23732;SDS011;12047;53.450;-2.286;2023-06-19T13:56:25;4.20;;;1.30;;
23732;SDS011;12047;53.450;-2.286;2023-06-19T14:01:26;3.60;;;1.77;;
23732;SDS011;12047;53.450;-2.286;2023-06-19T14:06:26;3.47;;;1.70;;
23732;SDS011;12047;53.450;-2.286;2023-06-19T14:11:27;4.37;;;1.93;;
23732;SDS011;12047;53.450;-2.286;2023-06-19T14:16:29;6.30;;;2.10;;
23732;SDS011;12047;53.450;-2.286;2023-06-19T14:21:29;6.05;;;2.70;;
23732;SDS011;12047;53.450;-2.286;2023-06-19T14:26:30;4.47;;;2.30;;
23732;SDS011;12047;53.450;-2.286;2023-06-19T14:31:30;8.97;;;2.30;;
23732;SDS011;12047;53.450;-2.286;2023-06-19T14:36:30;6.70;;;2.50;;
23732;SDS011;12047;53.450;-2.286;2023-06-19T14:41:31;3.47;;;2.30;;
23732;SDS011;12047;53.450;-2.286;2023-06-19T14:46:31;4.25;;;2.25;;
23732;SDS011;12047;53.450;-2.286;2023-06-19T14:51:32;5.28;;;2.20;;
23732;SDS011;12047;53.450;-2.286;2023-06-19T14:56:32;4.68;;;1.80;;
23732;SDS011;12047;53.450;-2.286;2023-06-19T15:01:33;3.92;;;2.22;;
23732;SDS011;12047;53.450;-2.286;2023-06-19T15:06:33;2.77;;;1.83;;
23732;SDS011;12047;53.450;-2.286;2023-06-19T15:11:34;4.17;;;2.00;;
23732;SDS011;12047;53.450;-2.286;2023-06-19T15:16:34;3.17;;;1.90;;
23732;SDS011;12047;53.450;-2.286;2023-06-19T15:21:35;3.17;;;1.80;;
23732;SDS011;12047;53.450;-2.286;2023-06-19T15:26:35;2.43;;;1.87;;
23732;SDS011;12047;53.450;-2.286;2023-06-19T15:31:35;5.83;;;2.00;;
23732;SDS011;12047;53.450;-2.286;2023-06-19T15:36:36;7.67;;;2.00;;
23732;SDS011;12047;53.450;-2.286;2023-06-19T15:41:36;3.25;;;2.00;;
23732;SDS011;12047;53.450;-2.286;2023-06-19T15:46:37;4.40;;;1.70;;
23732;SDS011;12047;53.450;-2.286;2023-06-19T15:51:37;3.10;;;1.88;;
23732;SDS011;12047;53.450;-2.286;2023-06-19T15:56:38;4.45;;;1.70;;
23732;SDS011;12047;53.450;-2.286;2023-06-19T16:01:39;4.30;;;2.05;;
23732;SDS011;12047;53.450;-2.286;2023-06-19T16:06:40;2.80;;;1.60;;
23732;SDS011;12047;53.450;-2.286;2023-06-19T16:11:41;3.17;;;1.67;;
23732;SDS011;12047;53.450;-2.286;2023-06-19T16:16:41;5.07;;;1.77;;
23732;SDS011;12047;53.450;-2.286;2023-06-19T16:21:42;3.00;;;1.50;;
23732;SDS011;12047;53.450;-2.286;2023-06-19T16:26:42;1.90;;;1.50;;
23732;SDS011;12047;53.450;-2.286;2023-06-19T16:31:43;2.10;;;1.40;;
23732;SDS011;12047;53.450;-2.286;2023-06-19T16:36:43;2.80;;;1.60;;
23732;SDS011;12047;53.450;-2.286;2023-06-19T16:41:44;3.50;;;1.80;;
23732;SDS011;12047;53.450;-2.286;2023-06-19T16:46:45;3.10;;;1.70;;
23732;SDS011;12047;53.450;-2.286;2023-06-19T16:51:46;2.70;;;1.90;;
23732;SDS011;12047;53.450;-2.286;2023-06-19T16:56:47;3.65;;;1.83;;
23732;SDS011;12047;53.450;-2.286;2023-06-19T17:01:48;3.05;;;1.65;;
23732;SDS011;12047;53.450;-2.286;2023-06-19T17:06:48;3.65;;;1.50;;
23732;SDS011;12047;53.450;-2.286;2023-06-19T17:11:48;2.87;;;1.53;;
23732;SDS011;12047;53.450;-2.286;2023-06-19T17:16:49;5.00;;;1.73;;
23732;SDS011;12047;53.450;-2.286;2023-06-19T17:21:50;3.85;;;1.60;;
23732;SDS011;12047;53.450;-2.286;2023-06-19T17:26:51;3.22;;;2.00;;
23732;SDS011;12047;53.450;-2.286;2023-06-19T17:31:56;3.97;;;1.85;;
23732;SDS011;12047;53.450;-2.286;2023-06-19T17:36:57;3.15;;;1.50;;
23732;SDS011;12047;53.450;-2.286;2023-06-19T17:41:57;4.28;;;1.60;;
23732;SDS011;12047;53.450;-2.286;2023-06-19T17:46:58;2.40;;;1.38;;
23732;SDS011;12047;53.450;-2.286;2023-06-19T17:51:59;2.85;;;2.00;;
23732;SDS011;12047;53.450;-2.286;2023-06-19T17:56:59;6.43;;;1.60;;
23732;SDS011;12047;53.450;-2.286;2023-06-19T18:02:00;2.60;;;1.50;;
23732;SDS011;12047;53.450;-2.286;2023-06-19T18:07:00;1.70;;;1.30;;
23732;SDS011;12047;53.450;-2.286;2023-06-19T18:12:01;3.05;;;1.48;;
23732;SDS011;12047;53.450;-2.286;2023-06-19T18:17:01;3.58;;;1.27;;
23732;SDS011;12047;53.450;-2.286;2023-06-19T18:22:03;2.67;;;1.50;;
23732;SDS011;12047;53.450;-2.286;2023-06-19T18:27:04;4.20;;;1.60;;
23732;SDS011;12047;53.450;-2.286;2023-06-19T18:32:06;2.53;;;1.40;;
23732;SDS011;12047;53.450;-2.286;2023-06-19T18:37:07;2.78;;;1.67;;
23732;SDS011;12047;53.450;-2.286;2023-06-19T18:42:07;7.55;;;2.10;;
23732;SDS011;12047;53.450;-2.286;2023-06-19T18:47:08;4.63;;;3.33;;
23732;SDS011;12047;53.450;-2.286;2023-06-19T18:52:08;5.20;;;3.50;;
23732;SDS011;12047;53.450;-2.286;2023-06-19T18:57:08;6.30;;;3.13;;
23732;SDS011;12047;53.450;-2.286;2023-06-19T19:02:09;9.95;;;7.65;;
23732;SDS011;12047;53.450;-2.286;2023-06-19T19:07:11;3.38;;;2.35;;
23732;SDS011;12047;53.450;-2.286;2023-06-19T19:12:11;4.18;;;1.60;;
23732;SDS011;12047;53.450;-2.286;2023-06-19T19:17:14;2.30;;;1.80;;
23732;SDS011;12047;53.450;-2.286;2023-06-19T19:22:14;3.65;;;1.70;;
23732;SDS011;12047;53.450;-2.286;2023-06-19T19:27:15;3.72;;;1.55;;
23732;SDS011;12047;53.450;-2.286;2023-06-19T19:32:16;4.65;;;1.40;;
23732;SDS011;12047;53.450;-2.286;2023-06-19T19:37:21;3.75;;;1.77;;
23732;SDS011;12047;53.450;-2.286;2023-06-19T19:42:23;2.40;;;1.60;;
23732;SDS011;12047;53.450;-2.286;2023-06-19T19:47:26;5.18;;;1.90;;
23732;SDS011;12047;53.450;-2.286;2023-06-19T19:52:27;2.40;;;1.50;;
23732;SDS011;12047;53.450;-2.286;2023-06-19T19:57:27;3.45;;;1.75;;
23732;SDS011;12047;53.450;-2.286;2023-06-19T20:02:28;3.25;;;1.73;;
23732;SDS011;12047;53.450;-2.286;2023-06-19T20:07:28;3.00;;;1.75;;
23732;SDS011;12047;53.450;-2.286;2023-06-19T20:12:29;4.13;;;1.67;;
23732;SDS011;12047;53.450;-2.286;2023-06-19T20:17:29;2.15;;;1.50;;
23732;SDS011;12047;53.450;-2.286;2023-06-19T20:22:30;3.55;;;2.00;;
23732;SDS011;12047;53.450;-2.286;2023-06-19T20:27:30;3.05;;;1.70;;
23732;SDS011;12047;53.450;-2.286;2023-06-19T20:32:31;2.90;;;1.60;;
23732;SDS011;12047;53.450;-2.286;2023-06-19T20:37:31;3.15;;;1.75;;
23732;SDS011;12047;53.450;-2.286;2023-06-19T20:42:33;8.30;;;3.60;;
23732;SDS011;12047;53.450;-2.286;2023-06-19T20:47:34;3.13;;;1.85;;
23732;SDS011;12047;53.450;-2.286;2023-06-19T20:52:34;1.95;;;1.60;;
23732;SDS011;12047;53.450;-2.286;2023-06-19T20:57:35;3.57;;;1.73;;
23732;SDS011;12047;53.450;-2.286;2023-06-19T21:02:36;6.10;;;2.60;;
23732;SDS011;12047;53.450;-2.286;2023-06-19T21:07:37;5.07;;;2.40;;
23732;SDS011;12047;53.450;-2.286;2023-06-19T21:12:38;5.10;;;2.10;;
23732;SDS011;12047;53.450;-2.286;2023-06-19T21:17:38;5.65;;;2.50;;
23732;SDS011;12047;53.450;-2.286;2023-06-19T21:22:39;5.63;;;2.58;;
23732;SDS011;12047;53.450;-2.286;2023-06-19T21:27:39;4.85;;;2.58;;
23732;SDS011;12047;53.450;-2.286;2023-06-19T21:32:40;6.15;;;2.42;;
23732;SDS011;12047;53.450;-2.286;2023-06-19T21:37:40;2.45;;;1.95;;
23732;SDS011;12047;53.450;-2.286;2023-06-19T21:42:40;5.80;;;2.10;;
23732;SDS011;12047;53.450;-2.286;2023-06-19T21:47:41;2.67;;;1.98;;
23732;SDS011;12047;53.450;-2.286;2023-06-19T21:52:41;6.15;;;2.38;;
23732;SDS011;12047;53.450;-2.286;2023-06-19T21:57:42;8.07;;;3.72;;
23732;SDS011;12047;53.450;-2.286;2023-06-19T22:02:42;3.45;;;2.10;;
23732;SDS011;12047;53.450;-2.286;2023-06-19T22:07:43;6.15;;;2.05;;
23732;SDS011;12047;53.450;-2.286;2023-06-19T22:12:43;3.20;;;2.17;;
23732;SDS011;12047;53.450;-2.286;2023-06-19T22:17:44;5.05;;;2.13;;
23732;SDS011;12047;53.450;-2.286;2023-06-19T22:22:45;3.40;;;2.20;;
23732;SDS011;12047;53.450;-2.286;2023-06-19T22:27:47;9.65;;;2.63;;
23732;SDS011;12047;53.450;-2.286;2023-06-19T22:32:48;4.50;;;2.22;;
23732;SDS011;12047;53.450;-2.286;2023-06-19T22:37:49;5.50;;;2.47;;
23732;SDS011;12047;53.450;-2.286;2023-06-19T22:42:49;3.30;;;2.20;;
23732;SDS011;12047;53.450;-2.286;2023-06-19T22:47:50;5.43;;;2.47;;
23732;SDS011;12047;53.450;-2.286;2023-06-19T22:52:51;4.80;;;2.10;;
23732;SDS011;12047;53.450;-2.286;2023-06-19T22:57:51;4.72;;;2.30;;
23732;SDS011;12047;53.450;-2.286;2023-06-19T23:02:52;6.38;;;2.40;;
23732;SDS011;12047;53.450;-2.286;2023-06-19T23:07:52;4.35;;;2.40;;
23732;SDS011;12047;53.450;-2.286;2023-06-19T23:12:55;5.65;;;2.50;;
23732;SDS011;12047;53.450;-2.286;2023-06-19T23:17:56;6.68;;;3.40;;
23732;SDS011;12047;53.450;-2.286;2023-06-19T23:22:56;6.85;;;3.17;;
23732;SDS011;12047;53.450;-2.286;2023-06-19T23:27:57;5.57;;;2.60;;
23732;SDS011;12047;53.450;-2.286;2023-06-19T23:32:57;4.65;;;2.50;;
23732;SDS011;12047;53.450;-2.286;2023-06-19T23:37:57;5.77;;;2.70;;
23732;SDS011;12047;53.450;-2.286;2023-06-19T23:42:58;4.45;;;2.45;;
23732;SDS011;12047;53.450;-2.286;2023-06-19T23:47:58;5.53;;;2.90;;
23732;SDS011;12047;53.450;-2.286;2023-06-19T23:52:59;6.97;;;3.70;;
23732;SDS011;12047;53.450;-2.286;2023-06-19T23:57:59;5.95;;;3.70;;
